• Join FlightAware (Why Join?)
  • Login
  • US Flag 
04:51AM EDT


 

Airport Tracker/Info


-or-


 

Live Flight TrackerFlight Track Log ✈ AWE3921 ✈ 04-Apr-2013 ✈ KDCA - KCAE

Flight Track Log - Related Links

Times and Time Zones

All times are in EDT time to prevent confusion due to time zone crossing. See the AWE3921 flight status page for this flight to view local times or setup timezone preferences in your user account.

Time Position Orientation Groundspeed Altitude Reporting Facility
EDT Latitude Longitude Course Direction KTS MPH feet Rate Location/Type
02:37PM 38.6012 -77.2622 215° Southwest  Level Estimated
02:38PM 38.5175 -77.3367 215° Southwest  Level Estimated
02:39PM 38.4338 -77.4110 215° Southwest  Level Estimated
02:40PM 38.3500 -77.4851 215° Southwest  Level Estimated
02:41PM 38.2662 -77.5591 215° Southwest  Level Estimated
02:42PM 38.1823 -77.6329 215° Southwest  Level Estimated
02:43PM 38.0984 -77.7065 215° Southwest  Level Estimated
02:44PM 38.0145 -77.7800 215° Southwest  Level Estimated
02:45PM 37.9305 -77.8533 215° Southwest  Level Estimated
02:46PM 37.8464 -77.9264 214° Southwest  Level Estimated
02:47PM 37.7623 -77.9994 214° Southwest  Level Estimated
02:48PM 37.6782 -78.0722 214° Southwest  Level Estimated
02:49PM 37.5940 -78.1448 214° Southwest  Level Estimated
02:50PM 37.5098 -78.2172 214° Southwest  Level Estimated
02:51PM 37.4255 -78.2896 214° Southwest  Level Estimated
02:52PM 37.3412 -78.3617 214° Southwest  Level Estimated
02:53PM 37.2568 -78.4337 214° Southwest  Level Estimated
02:54PM 37.1724 -78.5055 214° Southwest  Level Estimated
02:55PM 37.0880 -78.5771 214° Southwest  Level Estimated
02:56PM 37.0035 -78.6486 214° Southwest  Level Estimated
02:57PM 36.9190 -78.7199 214° Southwest  Level Estimated
02:58PM 36.8344 -78.7911 214° Southwest  Level Estimated
02:59PM 36.7498 -78.8622 214° Southwest  Level Estimated
03:00PM 36.6651 -78.9330 214° Southwest  Level Estimated
03:01PM 36.5804 -79.0037 214° Southwest  Level Estimated
03:02PM 36.4957 -79.0743 214° Southwest  Level Estimated
03:03PM 36.4109 -79.1447 214° Southwest  Level Estimated
03:04PM 36.3261 -79.2149 214° Southwest  Level Estimated
03:05PM 36.2412 -79.2850 214° Southwest  Level Estimated
03:06PM 36.1563 -79.3549 214° Southwest  Level Estimated
03:07PM 36.0714 -79.4247 214° Southwest  Level Estimated
03:08PM 35.9864 -79.4944 214° Southwest  Level Estimated
03:09PM 35.9014 -79.5639 214° Southwest  Level Estimated
03:10PM 35.8163 -79.6332 213° Southwest  Level Estimated
03:11PM 35.7312 -79.7024 213° Southwest  Level Estimated
03:12PM 35.6461 -79.7714 213° Southwest  Level Estimated
03:13PM 35.5609 -79.8403 213° Southwest  Level Estimated
03:14PM 35.4757 -79.9091 213° Southwest  Level Estimated
03:15PM 35.3904 -79.9777 213° Southwest  Level Estimated
03:16PM 35.3051 -80.0461 213° Southwest  Level Estimated
03:17PM 35.2198 -80.1144 213° Southwest  Level Estimated
03:18PM 35.1344 -80.1826 213° Southwest  Level Estimated
03:19PM 35.0490 -80.2506 213° Southwest  Level Estimated
03:20PM 34.9635 -80.3185 213° Southwest  Level Estimated
03:21PM 34.8780 -80.3863 213° Southwest  Level Estimated
03:22PM 34.7925 -80.4539 213° Southwest  Level Estimated
03:23PM 34.7125 -80.5170 213° Southwest  Level Estimated
03:24PM 34.6324 -80.5800 213° Southwest  Level Estimated
03:25PM 34.5523 -80.6429 213° Southwest  Level Estimated
03:26PM 34.4721 -80.7056 213° Southwest  Level Estimated
03:27PM 34.3920 -80.7682 213° Southwest  Level Estimated
03:28PM 34.3118 -80.8307 213° Southwest  Level Estimated
03:29PM 34.2315 -80.8931 213° Southwest  Level Estimated
03:30PM 34.1512 -80.9554 213° Southwest  Level Estimated
03:31PM 34.0709 -81.0176 213° Southwest  Level Estimated
03:32PM 33.9906 -81.0796 213° Southwest  Level Estimated
03:33PM 33.9388 -81.1195 213° Southwest  Level Estimated
03:34PM 33.9388 -81.1195 29° Northeast  Level Estimated
03:35PM 33.9388 -81.1195 29° Northeast  Level Estimated
03:36PM 33.9388 -81.1195 29° Northeast  Level Estimated
03:37PM 33.9388 -81.1195 29° Northeast  Level Estimated
03:38PM 33.9388 -81.1195 29° Northeast  Level Estimated
03:39PM 33.9388 -81.1195 29° Northeast  Level Estimated
03:40PM 33.9388 -81.1195 29° Northeast  Level Estimated
03:41PM 33.9388 -81.1195 29° Northeast  Level Estimated
03:42PM 33.9388 -81.1195 29° Northeast  Level Estimated
03:43PM 33.9388 -81.1195 29° Northeast  Level Estimated
03:44PM 33.9388 -81.1195 29° Northeast  Level Estimated
03:45PM 33.9388 -81.1195 29° Northeast  Level Estimated
03:46PM 33.9388 -81.1195 29° Northeast  Level Estimated
03:47PM 33.9388 -81.1195 29° Northeast  Level Estimated
03:48PM 33.9388 -81.1195 29° Northeast  Level Estimated
03:49PM 33.9388 -81.1195 29° Northeast  Level Estimated
03:50PM 33.9388 -81.1195 29° Northeast  Level Estimated
03:51PM 33.9388 -81.1195 29° Northeast  Level Estimated
03:52PM 33.9388 -81.1195 29° Northeast  Level Estimated